createdAt,value
2023-03-23T00:00:32.537Z,5.5
2023-03-23T00:01:39.489Z,5.5
2023-03-23T00:02:46.694Z,5.5
2023-03-23T00:03:53.756Z,5.5
2023-03-23T00:06:07.354Z,5.5
2023-03-23T00:07:14.551Z,5.5
2023-03-23T00:08:21.692Z,5.5
2023-03-23T00:09:28.642Z,5.5
2023-03-23T00:10:35.972Z,5.5
2023-03-23T00:11:42.435Z,5.5
2023-03-23T00:12:49.554Z,5.5
2023-03-23T00:13:56.576Z,5.5
2023-03-23T00:15:03.682Z,5.5
2023-03-23T00:16:10.941Z,5.4
2023-03-23T00:17:17.508Z,5.4
2023-03-23T00:18:24.655Z,5.4
2023-03-23T00:19:31.737Z,5.4
2023-03-23T00:20:38.855Z,5.4
2023-03-23T00:22:52.464Z,5.4
2023-03-23T00:23:59.588Z,5.4
2023-03-23T00:25:06.675Z,5.4
2023-03-23T00:26:13.859Z,5.4
2023-03-23T00:27:20.767Z,5.3
2023-03-23T00:28:27.392Z,5.3
2023-03-23T00:29:34.479Z,5.3
2023-03-23T00:30:41.687Z,5.3
2023-03-23T00:31:48.680Z,5.3
2023-03-23T00:32:55.919Z,5.3
2023-03-23T00:34:02.561Z,5.3
2023-03-23T00:35:09.469Z,5.3
2023-03-23T00:36:16.734Z,5.3
2023-03-23T00:37:23.858Z,5.3
2023-03-23T00:38:30.827Z,5.3
2023-03-23T00:39:37.463Z,5.3
2023-03-23T00:40:45.119Z,5.2
2023-03-23T00:41:52.319Z,5.2
2023-03-23T00:42:58.802Z,5.2
2023-03-23T00:44:05.303Z,5.2
2023-03-23T00:45:12.561Z,5.2
2023-03-23T00:46:19.595Z,5.2
2023-03-23T00:47:26.629Z,5.2
2023-03-23T00:48:33.874Z,5.2
2023-03-23T00:49:40.401Z,5.2
2023-03-23T00:50:47.386Z,5.2
2023-03-23T00:51:54.703Z,5.2
2023-03-23T00:53:01.751Z,5.2
2023-03-23T00:54:08.719Z,5.2
2023-03-23T00:55:15.431Z,5.2
2023-03-23T00:56:22.500Z,5.2
2023-03-23T00:57:29.847Z,5.2
2023-03-23T00:58:36.675Z,5.2
2023-03-23T00:59:43.887Z,5.2
2023-03-23T01:00:50.298Z,5.2
2023-03-23T01:01:57.506Z,5.2
2023-03-23T01:03:04.587Z,5.2
2023-03-23T01:04:11.727Z,5.2
2023-03-23T01:05:18.729Z,5.2
2023-03-23T01:06:25.336Z,5.2
2023-03-23T01:07:32.594Z,5.2
2023-03-23T01:08:39.622Z,5.2
2023-03-23T01:09:46.777Z,5.2
2023-03-23T01:10:53.872Z,5.2
2023-03-23T01:12:00.426Z,5.2
2023-03-23T01:13:07.463Z,5.2
2023-03-23T01:14:14.700Z,5.2
2023-03-23T01:15:21.774Z,5.2
2023-03-23T01:16:28.868Z,5.2
2023-03-23T01:17:35.351Z,5.2
2023-03-23T01:18:42.519Z,5.2
2023-03-23T01:19:49.652Z,5.2
2023-03-23T01:20:56.666Z,5.2
2023-03-23T01:22:03.918Z,5.2
2023-03-23T01:23:10.443Z,5.2
2023-03-23T01:24:17.425Z,5.2
2023-03-23T01:26:31.767Z,5.2
2023-03-23T01:27:38.899Z,5.2
2023-03-23T01:28:45.489Z,5.2
2023-03-23T01:29:52.474Z,5.2
2023-03-23T01:30:59.675Z,5.2
2023-03-23T01:32:06.680Z,5.2
2023-03-23T01:34:20.548Z,5.2
2023-03-23T01:35:27.545Z,5.2
2023-03-23T01:36:34.782Z,5.2
2023-03-23T01:37:41.793Z,5.2
2023-03-23T01:38:48.893Z,5.2
2023-03-23T01:39:55.519Z,5.2
2023-03-23T01:41:04.027Z,5.2
2023-03-23T01:42:09.566Z,5.2
2023-03-23T01:43:16.906Z,5.2
2023-03-23T01:44:23.909Z,5.2
2023-03-23T01:45:30.464Z,5.2
2023-03-23T01:46:37.617Z,5.2
2023-03-23T01:47:44.595Z,5.2
2023-03-23T01:48:51.841Z,5.2
2023-03-23T01:49:58.934Z,5.2
2023-03-23T01:51:05.539Z,5.2
2023-03-23T01:52:12.511Z,5.2
2023-03-23T01:53:19.715Z,5.2
2023-03-23T01:54:26.839Z,5.2
2023-03-23T01:55:33.816Z,5.2
2023-03-23T01:56:40.529Z,5.2
2023-03-23T01:57:47.567Z,5.2
2023-03-23T01:58:54.849Z,5.2
2023-03-23T02:00:01.857Z,5.2
2023-03-23T02:01:08.957Z,5.2
2023-03-23T02:02:15.429Z,5.2
2023-03-23T02:03:22.520Z,5.2
2023-03-23T02:04:29.751Z,5.2
2023-03-23T02:05:36.893Z,5.2
2023-03-23T02:06:44.004Z,5.2
2023-03-23T02:07:50.481Z,5.2
2023-03-23T02:08:57.548Z,5.2
2023-03-23T02:10:05.170Z,5.2
2023-03-23T02:11:11.899Z,5.2
2023-03-23T02:12:18.438Z,5.2
2023-03-23T02:13:25.704Z,5.2
2023-03-23T02:14:32.664Z,5.2
2023-03-23T02:15:39.858Z,5.2
2023-03-23T02:16:46.886Z,5.2
2023-03-23T02:17:53.409Z,5.2
2023-03-23T02:19:00.411Z,5.2
2023-03-23T02:20:07.620Z,5.2
2023-03-23T02:21:14.734Z,5.2
2023-03-23T02:22:21.860Z,5.2
2023-03-23T02:23:28.403Z,5.2
2023-03-23T02:24:35.445Z,5.2
2023-03-23T02:25:42.846Z,5.2
2023-03-23T02:26:49.623Z,5.2
2023-03-23T02:27:56.850Z,5.2
2023-03-23T02:30:10.554Z,5.2
2023-03-23T02:31:17.582Z,5.2
2023-03-23T02:32:24.789Z,5.2
2023-03-23T02:33:31.933Z,5.2
2023-03-23T02:34:38.403Z,5.1
2023-03-23T02:35:45.491Z,5.1
2023-03-23T02:36:52.654Z,5.1
2023-03-23T02:37:59.736Z,5.1
2023-03-23T02:39:06.870Z,5.1
2023-03-23T02:40:13.998Z,5.1
2023-03-23T02:41:20.537Z,5.1
2023-03-23T02:42:27.643Z,5.1
2023-03-23T02:43:35.316Z,5.1
2023-03-23T02:44:41.786Z,5.1
2023-03-23T02:45:48.559Z,5.1
2023-03-23T02:46:55.547Z,5.1
2023-03-23T02:48:03.178Z,5.1
2023-03-23T02:49:09.651Z,5.1
2023-03-23T02:50:16.874Z,5.1
2023-03-23T02:51:23.383Z,5.1
2023-03-23T02:52:30.461Z,5.1
2023-03-23T02:53:37.680Z,5.1
2023-03-23T02:54:44.687Z,5.1
2023-03-23T02:55:51.896Z,5.1
2023-03-23T02:56:58.448Z,5.1
2023-03-23T02:58:05.595Z,5.1
2023-03-23T02:59:12.692Z,5.1
2023-03-23T03:00:19.815Z,5.1
2023-03-23T03:02:33.408Z,5.1
2023-03-23T03:03:40.652Z,5.1
2023-03-23T03:04:47.690Z,5.1
2023-03-23T03:05:54.701Z,5.1
2023-03-23T03:07:01.879Z,5.1
2023-03-23T03:08:08.408Z,5.1
2023-03-23T03:09:15.472Z,5.1
2023-03-23T03:10:22.691Z,5.1
2023-03-23T03:11:29.682Z,5.1
2023-03-23T03:12:37.002Z,5.1
2023-03-23T03:13:43.615Z,5.1
2023-03-23T03:14:50.609Z,5.1
2023-03-23T03:15:57.686Z,5.1
2023-03-23T03:17:04.867Z,5.1
2023-03-23T03:18:11.966Z,5.1
2023-03-23T03:19:18.415Z,5.1
2023-03-23T03:20:25.571Z,5.1
2023-03-23T03:21:32.688Z,5.1
2023-03-23T03:22:39.696Z,5.1
2023-03-23T03:23:46.980Z,5
2023-03-23T03:24:53.415Z,5.1
2023-03-23T03:26:00.976Z,5
2023-03-23T03:27:07.888Z,5.1
2023-03-23T03:28:14.884Z,5.1
2023-03-23T03:29:21.845Z,5.1
2023-03-23T03:30:28.619Z,5.1
2023-03-23T03:31:35.685Z,5.1
2023-03-23T03:33:49.847Z,5.2
2023-03-23T03:34:56.824Z,5.2
2023-03-23T03:36:03.492Z,5.2
2023-03-23T03:37:10.624Z,5.2
2023-03-23T03:38:18.187Z,5.1
2023-03-23T03:39:24.833Z,5.2
2023-03-23T03:40:31.501Z,5.2
2023-03-23T03:41:38.566Z,5.2
2023-03-23T03:42:45.792Z,5.2
2023-03-23T03:43:52.774Z,5.2
2023-03-23T03:44:59.732Z,5.2
2023-03-23T03:46:06.526Z,5.2
2023-03-23T03:47:13.614Z,5.2
2023-03-23T03:48:20.685Z,5.2
2023-03-23T03:49:27.630Z,5.2
2023-03-23T03:50:34.863Z,5.2
2023-03-23T03:51:42.009Z,5.2
2023-03-23T03:52:48.547Z,5.2
2023-03-23T03:53:55.807Z,5.2
2023-03-23T03:55:02.838Z,5.2
2023-03-23T03:56:09.745Z,5.2
2023-03-23T03:57:16.490Z,5.2
2023-03-23T03:58:23.676Z,5.2
2023-03-23T03:59:30.546Z,5.2
2023-03-23T04:00:37.822Z,5.2
2023-03-23T04:01:44.981Z,5.3
2023-03-23T04:02:51.371Z,5.2
2023-03-23T04:03:58.641Z,5.2
2023-03-23T04:05:05.989Z,5.2
2023-03-23T04:06:12.691Z,5.3
2023-03-23T04:07:19.917Z,5.3
2023-03-23T04:08:26.364Z,5.3
2023-03-23T04:09:33.609Z,5.3
2023-03-23T04:10:40.751Z,5.3
2023-03-23T04:11:47.771Z,5.3
2023-03-23T04:12:54.793Z,5.3
2023-03-23T04:14:01.654Z,5.2
2023-03-23T04:15:08.601Z,5.3
2023-03-23T04:16:15.629Z,5.2
2023-03-23T04:17:22.706Z,5.2
2023-03-23T04:18:29.940Z,5.2
2023-03-23T04:19:36.519Z,5.2
2023-03-23T04:20:43.645Z,5.2
2023-03-23T04:21:50.873Z,5.2
2023-03-23T04:22:57.677Z,5.2
2023-03-23T04:24:09.313Z,5.1
2023-03-23T04:25:11.405Z,5.1
2023-03-23T04:26:18.673Z,5.1
2023-03-23T04:27:25.607Z,5.1
2023-03-23T04:28:32.871Z,5.1
2023-03-23T04:30:46.650Z,5.1
2023-03-23T04:31:53.823Z,5
2023-03-23T04:33:00.792Z,5
2023-03-23T04:34:07.858Z,5
2023-03-23T04:35:15.017Z,5
2023-03-23T04:37:28.672Z,4.9
2023-03-23T04:38:35.852Z,4.9
2023-03-23T04:39:42.907Z,4.9
2023-03-23T04:40:49.919Z,4.9
2023-03-23T04:41:56.621Z,4.9
2023-03-23T04:43:03.715Z,4.9
2023-03-23T04:44:10.608Z,4.9
2023-03-23T04:45:17.847Z,4.9
2023-03-23T04:46:25.049Z,4.9
2023-03-23T04:47:31.597Z,4.9
2023-03-23T04:48:38.707Z,4.9
2023-03-23T04:49:45.843Z,4.9
2023-03-23T04:50:54.815Z,4.9
2023-03-23T04:51:59.975Z,4.9
2023-03-23T04:53:06.682Z,4.9
2023-03-23T04:54:13.550Z,4.9
2023-03-23T04:55:21.154Z,4.9
2023-03-23T04:56:27.729Z,4.9
2023-03-23T04:57:34.983Z,4.9
2023-03-23T04:58:41.657Z,4.9
2023-03-23T04:59:48.522Z,4.9
2023-03-23T05:00:55.709Z,4.9
2023-03-23T05:02:14.365Z,4.9
2023-03-23T05:03:09.838Z,4.9
2023-03-23T05:04:16.460Z,4.9
2023-03-23T05:05:23.683Z,4.9
2023-03-23T05:06:31.296Z,4.9
2023-03-23T05:07:37.971Z,4.9
2023-03-23T05:08:44.911Z,4.8
2023-03-23T05:09:51.463Z,4.9
2023-03-23T05:10:58.545Z,4.9
2023-03-23T05:12:05.681Z,4.9
2023-03-23T05:13:12.881Z,4.8
2023-03-23T05:14:20.045Z,4.8
2023-03-23T05:15:26.643Z,4.9
2023-03-23T05:16:33.711Z,4.8
2023-03-23T05:17:40.654Z,4.9
2023-03-23T05:18:47.978Z,4.8
2023-03-23T05:19:54.514Z,4.8
2023-03-23T05:21:04.094Z,4.8
2023-03-23T05:22:08.773Z,4.8
2023-03-23T05:23:15.846Z,4.8
2023-03-23T05:24:22.787Z,4.8
2023-03-23T05:25:29.460Z,4.8
2023-03-23T05:26:36.475Z,4.8
2023-03-23T05:27:43.589Z,4.8
2023-03-23T05:28:50.863Z,4.8
2023-03-23T05:29:57.962Z,4.8
2023-03-23T05:31:04.515Z,4.8
2023-03-23T05:32:11.592Z,4.9
2023-03-23T05:33:18.825Z,4.9
2023-03-23T05:38:53.898Z,4.9
2023-03-23T05:41:07.904Z,4.9
2023-03-23T05:42:14.973Z,4.9
2023-03-23T05:43:21.542Z,4.9
2023-03-23T05:44:28.586Z,4.9
2023-03-23T05:45:35.923Z,4.9
2023-03-23T05:46:42.822Z,4.9
2023-03-23T05:48:56.607Z,4.9
2023-03-23T05:50:03.734Z,4.9
2023-03-23T05:51:10.896Z,4.9
2023-03-23T05:53:24.428Z,4.9
2023-03-23T05:54:31.517Z,4.9
2023-03-23T05:55:38.838Z,4.9
2023-03-23T05:56:45.853Z,4.8
2023-03-23T05:59:00.129Z,4.8
2023-03-23T06:00:06.761Z,4.8
2023-03-23T06:01:13.902Z,4.8
2023-03-23T06:02:20.913Z,4.8
2023-03-23T06:03:28.113Z,4.8
2023-03-23T06:04:34.393Z,4.8
2023-03-23T06:05:41.858Z,4.8
2023-03-23T06:06:48.619Z,4.8
2023-03-23T06:07:55.970Z,4.8
2023-03-23T06:09:03.041Z,4.9
2023-03-23T06:10:09.408Z,4.9
2023-03-23T06:11:16.660Z,4.9
2023-03-23T06:12:23.772Z,4.9
2023-03-23T06:13:31.069Z,4.9
2023-03-23T06:17:58.638Z,4.9
2023-03-23T06:19:05.771Z,4.9
2023-03-23T06:20:12.871Z,4.9
2023-03-23T06:22:26.553Z,4.9
2023-03-23T06:23:33.868Z,5
2023-03-23T06:24:40.739Z,5
2023-03-23T06:25:47.894Z,5
2023-03-23T06:26:54.464Z,5
2023-03-23T06:28:01.671Z,5
2023-03-23T06:29:08.857Z,5
2023-03-23T06:30:15.929Z,5.1
2023-03-23T06:31:22.892Z,5.1
2023-03-23T06:32:29.805Z,5.1
2023-03-23T06:33:36.545Z,5.1
2023-03-23T06:34:44.404Z,5.1
2023-03-23T06:35:50.795Z,5.1
2023-03-23T06:36:58.132Z,5.1
2023-03-23T06:38:04.477Z,5.1
2023-03-23T06:39:11.967Z,5.1
2023-03-23T06:40:18.886Z,5.1
2023-03-23T06:41:25.963Z,5.1
2023-03-23T06:42:33.047Z,5.1
2023-03-23T06:44:46.756Z,5.2
2023-03-23T06:45:53.820Z,5.2
2023-03-23T06:47:00.769Z,5.2
2023-03-23T06:48:07.880Z,5.2
2023-03-23T06:49:14.676Z,5.3
2023-03-23T06:50:21.681Z,5.2
2023-03-23T06:51:28.768Z,5.3
2023-03-23T06:52:35.961Z,5.3
2023-03-23T06:53:42.959Z,5.3
2023-03-23T06:54:49.646Z,5.3
2023-03-23T06:55:56.618Z,5.3
2023-03-23T06:57:03.788Z,5.3
2023-03-23T06:58:10.994Z,5.4
2023-03-23T06:59:18.072Z,5.4
2023-03-23T07:00:24.731Z,5.4
2023-03-23T07:01:31.715Z,5.4
2023-03-23T07:02:38.786Z,5.4
2023-03-23T07:03:46.008Z,5.4
2023-03-23T07:04:53.034Z,5.4
2023-03-23T07:05:59.481Z,5.4
2023-03-23T07:07:06.838Z,5.4
2023-03-23T07:08:13.899Z,5.4
2023-03-23T07:09:23.832Z,5.4
2023-03-23T07:10:27.542Z,5.4
2023-03-23T07:11:34.654Z,5.4
2023-03-23T07:12:41.905Z,5.4
2023-03-23T07:13:48.984Z,5.4
2023-03-23T07:14:55.843Z,5.4
2023-03-23T07:16:03.054Z,5.5
2023-03-23T07:17:09.695Z,5.4
2023-03-23T07:18:16.653Z,5.5
2023-03-23T07:19:23.755Z,5.4
2023-03-23T07:20:31.189Z,5.4
2023-03-23T07:21:37.564Z,5.4
2023-03-23T07:22:44.646Z,5.5
2023-03-23T07:23:51.682Z,5.4
2023-03-23T07:24:58.729Z,5.4
2023-03-23T07:27:12.564Z,5.5
2023-03-23T07:28:19.744Z,5.5
2023-03-23T07:29:26.674Z,5.5
2023-03-23T07:30:33.890Z,5.5
2023-03-23T07:31:40.832Z,5.5
2023-03-23T07:32:47.417Z,5.5
2023-03-23T07:33:54.761Z,5.5
2023-03-23T07:35:01.819Z,5.6
2023-03-23T07:36:08.859Z,5.6
2023-03-23T07:37:16.028Z,5.6
2023-03-23T07:38:22.577Z,5.6
2023-03-23T07:39:29.762Z,5.6
2023-03-23T07:40:36.763Z,5.6
2023-03-23T07:41:43.897Z,5.6
2023-03-23T07:42:50.849Z,5.6
2023-03-23T07:43:57.571Z,5.6
2023-03-23T07:45:04.566Z,5.6
2023-03-23T07:46:11.677Z,5.6
2023-03-23T07:48:25.895Z,5.6
2023-03-23T07:49:32.781Z,5.6
2023-03-23T07:50:39.542Z,5.6
2023-03-23T07:51:46.816Z,5.6
2023-03-23T07:52:53.896Z,5.6
2023-03-23T07:54:01.015Z,5.6
2023-03-23T07:55:07.589Z,5.6
2023-03-23T07:56:14.590Z,5.6
2023-03-23T07:57:21.690Z,5.6
2023-03-23T07:58:28.889Z,5.6
2023-03-23T07:59:36.060Z,5.6
2023-03-23T08:00:42.848Z,5.6
2023-03-23T08:01:49.559Z,5.7
2023-03-23T08:02:57.444Z,5.7
2023-03-23T08:04:03.801Z,5.7
2023-03-23T08:05:11.171Z,5.7
2023-03-23T08:06:18.130Z,5.8
2023-03-23T08:07:24.952Z,5.8
2023-03-23T08:08:31.676Z,5.8
2023-03-23T08:09:39.055Z,5.8
2023-03-23T08:10:46.023Z,5.8
2023-03-23T08:11:52.632Z,5.8
2023-03-23T08:12:59.706Z,5.8
2023-03-23T08:14:06.708Z,5.9
2023-03-23T08:15:14.211Z,5.9
2023-03-23T08:16:21.010Z,5.9
2023-03-23T08:17:27.627Z,6
2023-03-23T08:18:34.955Z,6
2023-03-23T08:19:42.138Z,6.1
2023-03-23T08:20:48.852Z,6.1
2023-03-23T08:21:56.034Z,6.2
2023-03-23T08:23:02.515Z,6.2
2023-03-23T08:24:09.590Z,6.2
2023-03-23T08:25:16.853Z,6.2
2023-03-23T08:26:24.095Z,6.3
2023-03-23T08:27:30.702Z,6.3
2023-03-23T08:28:37.486Z,6.3
2023-03-23T08:29:44.588Z,6.3
2023-03-23T08:30:51.840Z,6.3
2023-03-23T08:31:58.880Z,6.3
2023-03-23T08:33:05.555Z,6.3
2023-03-23T08:34:13.855Z,6.3
2023-03-23T08:35:19.609Z,6.4
2023-03-23T08:36:26.896Z,6.4
2023-03-23T08:37:33.962Z,6.4
2023-03-23T08:38:40.598Z,6.4
2023-03-23T08:39:47.557Z,6.5
2023-03-23T08:40:54.632Z,6.4
2023-03-23T08:42:01.737Z,6.5
2023-03-23T08:43:08.890Z,6.5
2023-03-23T08:44:15.458Z,6.5
2023-03-23T08:45:22.687Z,6.6
2023-03-23T08:46:29.731Z,6.6
2023-03-23T08:47:36.866Z,6.6
2023-03-23T08:49:13.481Z,6.7
2023-03-23T08:49:51.142Z,6.7
2023-03-23T08:50:57.518Z,6.7
2023-03-23T08:52:04.738Z,6.8
2023-03-23T08:53:11.946Z,6.8
2023-03-23T08:55:25.654Z,6.8
2023-03-23T08:56:32.562Z,6.8
2023-03-23T08:57:39.756Z,6.9
2023-03-23T08:58:46.872Z,6.9
2023-03-23T08:59:54.037Z,7
2023-03-23T09:01:04.147Z,7.1
2023-03-23T09:02:07.657Z,7.2
2023-03-23T09:03:14.807Z,7.3
2023-03-23T09:04:21.926Z,7.3
2023-03-23T09:05:28.860Z,7.5
2023-03-23T09:06:35.473Z,7.5
2023-03-23T09:07:42.694Z,7.5
2023-03-23T09:08:49.769Z,7.5
2023-03-23T09:09:56.791Z,7.6
2023-03-23T09:11:04.366Z,7.7
2023-03-23T09:12:10.629Z,7.9
2023-03-23T09:13:17.565Z,8
2023-03-23T09:14:25.058Z,8.2
2023-03-23T09:15:34.164Z,8.3
2023-03-23T09:16:38.865Z,8.4
2023-03-23T09:17:45.563Z,8.4
2023-03-23T09:18:52.634Z,8.5
2023-03-23T09:19:59.782Z,8.7
2023-03-23T09:21:07.042Z,8.8
2023-03-23T09:22:14.016Z,9
2023-03-23T09:23:20.699Z,9.1
2023-03-23T09:24:27.956Z,9.3
2023-03-23T09:25:34.708Z,9.2
2023-03-23T09:26:42.050Z,9.2
2023-03-23T09:27:48.887Z,9.3
2023-03-23T09:28:55.698Z,9.4
2023-03-23T09:30:02.680Z,9.4
2023-03-23T09:31:10.742Z,9.5
2023-03-23T09:32:16.925Z,9.5
2023-03-23T09:33:24.076Z,9.4
2023-03-23T09:34:30.583Z,9.5
2023-03-23T09:35:37.753Z,9.5
2023-03-23T09:36:47.485Z,9.4
2023-03-23T09:37:51.792Z,9.3
2023-03-23T09:38:59.100Z,9.3
2023-03-23T09:40:06.754Z,9.3
2023-03-23T09:41:12.721Z,9.3
2023-03-23T09:42:19.694Z,9.3
2023-03-23T09:43:26.838Z,9.5
2023-03-23T09:44:33.430Z,9.6
2023-03-23T09:45:40.715Z,9.7
2023-03-23T09:46:47.691Z,9.8
2023-03-23T09:47:54.842Z,9.8
2023-03-23T09:49:02.010Z,9.9
2023-03-23T09:50:09.012Z,9.9
2023-03-23T09:51:15.652Z,10
2023-03-23T09:52:22.744Z,10
2023-03-23T09:53:29.845Z,10.1
2023-03-23T09:54:36.960Z,10
2023-03-23T09:55:43.683Z,9.9
2023-03-23T09:56:50.634Z,9.8
2023-03-23T09:57:57.705Z,9.7
2023-03-23T09:59:04.863Z,9.8
2023-03-23T10:00:11.848Z,9.9
2023-03-23T10:01:18.420Z,10
2023-03-23T10:02:25.685Z,10
2023-03-23T10:03:32.788Z,10.1
2023-03-23T10:04:39.814Z,10
2023-03-23T10:05:46.869Z,10
2023-03-23T10:06:53.507Z,9.9
2023-03-23T10:08:00.597Z,9.9
2023-03-23T10:09:07.754Z,9.9
2023-03-23T10:10:15.004Z,10
2023-03-23T10:11:22.073Z,10.1
2023-03-23T10:12:28.946Z,10.1
2023-03-23T10:13:36.217Z,10.2
2023-03-23T10:14:42.711Z,10.2
2023-03-23T10:15:49.756Z,10.3
2023-03-23T10:16:56.924Z,10.3
2023-03-23T10:18:03.532Z,10.4
2023-03-23T10:19:13.007Z,10.4
2023-03-23T10:20:17.795Z,10.4
2023-03-23T10:21:24.786Z,10.4
2023-03-23T10:23:38.594Z,10.4
2023-03-23T10:24:45.588Z,10.4
2023-03-23T10:25:52.823Z,10.4
2023-03-23T10:26:59.786Z,10.3
2023-03-23T10:28:06.926Z,10.3
2023-03-23T10:29:13.879Z,10.3
2023-03-23T10:30:20.645Z,10.4
2023-03-23T10:31:27.733Z,10.4
2023-03-23T10:32:34.801Z,10.4
2023-03-23T10:33:42.004Z,10.4
2023-03-23T10:34:48.463Z,10.4
2023-03-23T10:35:55.677Z,10.5
2023-03-23T10:37:02.778Z,10.5
2023-03-23T10:38:09.833Z,10.4
2023-03-23T10:39:16.994Z,10.5
2023-03-23T10:40:23.503Z,10.5
2023-03-23T10:41:30.665Z,10.5
2023-03-23T10:42:37.676Z,10.4
2023-03-23T10:43:44.815Z,10.4
2023-03-23T10:44:52.025Z,10.3
2023-03-23T10:46:00.747Z,10.3
2023-03-23T10:47:05.748Z,10.3
2023-03-23T10:48:12.908Z,10.4
2023-03-23T10:49:19.973Z,10.3
2023-03-23T10:50:27.104Z,10.3
2023-03-23T10:51:33.603Z,10.4
2023-03-23T10:52:40.720Z,10.4
2023-03-23T10:53:47.770Z,10.5
2023-03-23T10:54:54.883Z,10.5
2023-03-23T10:56:02.007Z,10.6
2023-03-23T10:57:08.641Z,10.6
2023-03-23T10:59:23.274Z,10.7
2023-03-23T11:00:29.814Z,10.7
2023-03-23T11:01:36.526Z,10.7
2023-03-23T11:02:43.533Z,10.7
2023-03-23T11:03:50.667Z,10.7
2023-03-23T11:05:01.172Z,10.8
2023-03-23T11:06:04.839Z,10.7
2023-03-23T11:07:12.050Z,10.5
2023-03-23T11:08:18.508Z,10.6
2023-03-23T11:09:25.789Z,10.7
2023-03-23T11:10:32.818Z,10.7
2023-03-23T11:11:39.920Z,10.7
2023-03-23T11:12:46.552Z,10.7
2023-03-23T11:13:53.788Z,10.7
2023-03-23T11:15:00.685Z,10.8
2023-03-23T11:16:07.743Z,10.9
2023-03-23T11:17:15.973Z,10.8
2023-03-23T11:18:21.531Z,10.9
2023-03-23T11:19:28.944Z,10.9
2023-03-23T11:20:35.660Z,10.9
2023-03-23T11:21:42.884Z,10.7
2023-03-23T11:22:49.929Z,10.6
2023-03-23T11:24:09.103Z,10.3
2023-03-23T11:25:03.554Z,10.1
2023-03-23T11:26:10.630Z,10
2023-03-23T11:27:17.946Z,9.9
2023-03-23T11:28:24.974Z,9.9
2023-03-23T11:29:31.634Z,9.8
2023-03-23T11:30:38.533Z,9.7
2023-03-23T11:31:45.843Z,9.6
2023-03-23T11:32:52.994Z,9.5
2023-03-23T11:34:05.855Z,9.5
2023-03-23T11:35:15.947Z,9.3
2023-03-23T11:36:13.712Z,9.3
2023-03-23T11:37:20.792Z,9.3
2023-03-23T11:38:27.912Z,9.4
2023-03-23T11:39:35.101Z,9.5
2023-03-23T11:40:41.583Z,9.6
2023-03-23T11:41:51.532Z,9.7
2023-03-23T11:42:55.784Z,9.7
2023-03-23T11:44:02.915Z,9.7
2023-03-23T11:45:09.883Z,9.8
2023-03-23T11:46:16.574Z,9.9
2023-03-23T11:47:23.668Z,10
2023-03-23T11:48:30.746Z,10
2023-03-23T11:49:37.775Z,10.1
2023-03-23T11:51:51.915Z,10
2023-03-23T11:52:58.652Z,9.9
2023-03-23T11:54:05.917Z,9.9
2023-03-23T11:55:12.821Z,10
2023-03-23T11:56:19.993Z,10
2023-03-23T11:57:26.491Z,10.1
2023-03-23T11:58:33.764Z,10.1
2023-03-23T11:59:40.678Z,10.2
2023-03-23T12:00:47.868Z,10.2
2023-03-23T12:03:01.673Z,10.4
2023-03-23T12:04:08.769Z,10.4
2023-03-23T12:05:15.825Z,10.5
2023-03-23T12:06:22.942Z,10.5
2023-03-23T12:07:29.457Z,10.5
2023-03-23T12:08:36.627Z,10.6
2023-03-23T12:09:43.709Z,10.5
2023-03-23T12:11:57.870Z,10.5
2023-03-23T12:13:04.479Z,10.5
2023-03-23T12:14:11.695Z,10.5
2023-03-23T12:15:18.673Z,10.6
2023-03-23T12:16:25.801Z,10.6
2023-03-23T12:17:32.980Z,10.6
2023-03-23T12:18:39.480Z,10.5
2023-03-23T12:19:46.618Z,10.4
2023-03-23T12:20:54.240Z,10.4
2023-03-23T12:22:00.772Z,10.4
2023-03-23T12:23:07.832Z,10.3
2023-03-23T12:24:14.491Z,10.3
2023-03-23T12:25:21.615Z,10.2
2023-03-23T12:26:28.681Z,10.2
2023-03-23T12:27:35.778Z,10.2
2023-03-23T12:28:42.936Z,10.3
2023-03-23T12:29:49.613Z,10.3
2023-03-23T12:30:56.637Z,10.3
2023-03-23T12:32:03.720Z,10.3
2023-03-23T12:33:10.840Z,10.3
2023-03-23T12:34:17.875Z,10.3
2023-03-23T12:35:25.857Z,10.4
2023-03-23T12:36:31.657Z,10.4
2023-03-23T12:37:38.712Z,10.4
2023-03-23T12:38:45.979Z,10.4
2023-03-23T12:39:53.348Z,10.5
2023-03-23T12:40:59.486Z,10.6
2023-03-23T12:42:06.736Z,10.6
2023-03-23T12:43:13.629Z,10.6
2023-03-23T12:44:20.869Z,10.7
2023-03-23T12:45:28.034Z,10.7
2023-03-23T12:46:34.532Z,10.8
2023-03-23T12:47:41.721Z,10.8
2023-03-23T12:48:48.638Z,10.8
2023-03-23T12:49:55.885Z,10.9
2023-03-23T12:51:04.245Z,10.9
2023-03-23T12:52:09.437Z,10.9
2023-03-23T12:53:16.706Z,10.7
2023-03-23T12:54:23.739Z,10.6
2023-03-23T12:55:30.834Z,10.5
2023-03-23T12:56:37.950Z,10.4
2023-03-23T12:57:44.525Z,10.3
2023-03-23T12:58:53.787Z,10.3
2023-03-23T12:59:58.894Z,10.3
2023-03-23T13:01:05.931Z,10.3
2023-03-23T13:02:13.133Z,10.3
2023-03-23T13:03:19.574Z,10.3
2023-03-23T13:04:26.587Z,10.4
2023-03-23T13:06:40.855Z,10.4
2023-03-23T13:07:48.044Z,10.4
2023-03-23T13:08:54.463Z,10.4
2023-03-23T13:10:01.655Z,10.5
2023-03-23T13:11:08.667Z,10.6
2023-03-23T13:12:15.807Z,10.6
2023-03-23T13:13:23.002Z,10.6
2023-03-23T13:14:29.470Z,10.6
2023-03-23T13:15:36.672Z,10.7
2023-03-23T13:16:43.718Z,10.7
2023-03-23T13:17:50.905Z,10.8
2023-03-23T13:20:04.560Z,10.6
2023-03-23T13:21:11.676Z,10.6
2023-03-23T13:22:18.776Z,10.6
2023-03-23T13:23:25.890Z,10.6
2023-03-23T13:24:32.937Z,10.5
2023-03-23T13:25:39.623Z,10.5
2023-03-23T13:26:46.722Z,10.4
2023-03-23T13:27:53.816Z,10.4
2023-03-23T13:29:00.878Z,10.4
2023-03-23T13:30:07.907Z,10.4
2023-03-23T13:31:14.535Z,10.3
2023-03-23T13:32:21.599Z,10.3
2023-03-23T13:33:28.823Z,10.3
2023-03-23T13:34:35.844Z,10.3
2023-03-23T13:35:42.669Z,10.4
2023-03-23T13:36:49.653Z,10.4
2023-03-23T13:37:56.706Z,10.5
2023-03-23T13:39:03.810Z,10.6
2023-03-23T13:40:11.788Z,10.6
2023-03-23T13:41:17.606Z,10.6
2023-03-23T13:42:24.654Z,10.7
2023-03-23T13:43:31.649Z,10.7
2023-03-23T13:44:38.826Z,10.7
2023-03-23T13:45:46.070Z,10.7
2023-03-23T13:46:53.015Z,10.6
2023-03-23T13:47:59.595Z,10.6
2023-03-23T13:49:15.913Z,10.6
2023-03-23T13:50:13.941Z,10.6
2023-03-23T13:51:20.909Z,10.6
2023-03-23T13:52:27.588Z,10.7
2023-03-23T13:53:34.552Z,10.6
2023-03-23T13:54:41.779Z,10.5
2023-03-23T13:55:48.848Z,10.5
2023-03-23T13:56:56.021Z,10.5
2023-03-23T13:58:02.466Z,10.5
2023-03-23T13:59:09.542Z,10.5
2023-03-23T14:00:16.747Z,10.5
2023-03-23T14:01:24.612Z,10.6
2023-03-23T14:02:30.840Z,10.5
2023-03-23T14:03:37.435Z,10.5
2023-03-23T14:04:44.711Z,10.4
2023-03-23T14:05:51.787Z,10.4
2023-03-23T14:06:58.852Z,10.3
2023-03-23T14:08:05.965Z,10.3
2023-03-23T14:10:19.675Z,10.2
2023-03-23T14:11:26.770Z,10.2
2023-03-23T14:12:33.891Z,10.1
2023-03-23T14:13:40.441Z,10
2023-03-23T14:14:47.496Z,10
2023-03-23T14:15:54.779Z,10
2023-03-23T14:17:01.761Z,10
2023-03-23T14:18:08.814Z,10
2023-03-23T14:19:15.400Z,10
2023-03-23T14:20:22.478Z,10
2023-03-23T14:21:29.569Z,10
2023-03-23T14:22:36.765Z,10
2023-03-23T14:23:43.792Z,10
2023-03-23T14:24:50.966Z,9.9
2023-03-23T14:25:57.597Z,9.9
2023-03-23T14:27:04.731Z,9.9
2023-03-23T14:28:12.351Z,9.9
2023-03-23T14:29:18.893Z,9.9
2023-03-23T14:30:25.456Z,9.8
2023-03-23T14:31:32.498Z,9.9
2023-03-23T14:32:39.566Z,9.9
2023-03-23T14:33:46.763Z,10
2023-03-23T14:34:53.874Z,10
2023-03-23T14:36:00.368Z,10
2023-03-23T14:37:07.474Z,10
2023-03-23T14:38:14.680Z,10
2023-03-23T14:39:21.762Z,10
2023-03-23T14:40:28.787Z,9.9
2023-03-23T14:41:35.563Z,9.8
2023-03-23T14:42:42.568Z,9.8
2023-03-23T14:43:49.672Z,9.7
2023-03-23T14:44:56.836Z,9.7
2023-03-23T14:46:03.883Z,9.7
2023-03-23T14:47:10.495Z,9.6
2023-03-23T14:48:17.490Z,9.7
2023-03-23T14:49:24.724Z,9.6
2023-03-23T14:50:31.845Z,9.6
2023-03-23T14:51:38.798Z,9.5
2023-03-23T14:52:45.471Z,9.6
2023-03-23T14:53:52.567Z,9.5
2023-03-23T14:54:59.717Z,9.5
2023-03-23T14:56:06.851Z,9.5
2023-03-23T14:57:13.946Z,9.5
2023-03-23T14:58:21.078Z,9.5
2023-03-23T14:59:27.652Z,9.5
2023-03-23T15:00:34.768Z,9.5
2023-03-23T15:01:41.745Z,9.5
2023-03-23T15:02:48.937Z,9.5
2023-03-23T15:03:55.426Z,9.4
2023-03-23T15:05:02.576Z,9.4
2023-03-23T15:06:09.612Z,9.4
2023-03-23T15:07:16.938Z,9.4
2023-03-23T15:08:23.864Z,9.4
2023-03-23T15:09:30.523Z,9.4
2023-03-23T15:10:37.658Z,9.4
2023-03-23T15:11:44.729Z,9.4
2023-03-23T15:13:58.854Z,9.3
2023-03-23T15:15:05.561Z,9.3
2023-03-23T15:16:12.615Z,9.4
2023-03-23T15:17:19.763Z,9.4
2023-03-23T15:18:26.834Z,9.4
2023-03-23T15:19:34.096Z,9.4
2023-03-23T15:20:40.515Z,9.4
2023-03-23T15:21:47.616Z,9.4
2023-03-23T15:22:54.782Z,9.4
2023-03-23T15:25:08.990Z,9.4
2023-03-23T15:26:15.616Z,9.4
2023-03-23T15:27:22.686Z,9.5
2023-03-23T15:28:54.259Z,9.5
2023-03-23T15:29:36.892Z,9.5
2023-03-23T15:30:43.952Z,9.5
2023-03-23T15:31:51.175Z,9.5
2023-03-23T15:32:57.869Z,9.5
2023-03-23T15:34:04.826Z,9.5
2023-03-23T15:35:12.374Z,9.6
2023-03-23T15:36:18.983Z,9.5
2023-03-23T15:37:25.626Z,9.5
2023-03-23T15:38:32.663Z,9.5
2023-03-23T15:39:39.793Z,9.5
2023-03-23T15:40:46.977Z,9.5
2023-03-23T15:41:53.883Z,9.5
2023-03-23T15:43:00.479Z,9.5
2023-03-23T15:44:07.691Z,9.5
2023-03-23T15:45:14.707Z,9.5
2023-03-23T15:46:21.917Z,9.5
2023-03-23T15:47:29.029Z,9.5
2023-03-23T15:48:35.500Z,9.5
2023-03-23T15:49:42.771Z,9.4
2023-03-23T15:50:49.897Z,9.4
2023-03-23T15:51:56.872Z,9.3
2023-03-23T15:53:03.470Z,9.3
2023-03-23T15:54:14.117Z,9.3
2023-03-23T15:55:17.737Z,9.3
2023-03-23T15:56:24.820Z,9.3